sensor_id;sensor_type;location;lat;lon;timestamp;P1;durP1;ratioP1;P2;durP2;ratioP2
64959;SDS011;51487;52.266;10.542;2024-02-14T00:01:03;2.78;;;2.10;;
64959;SDS011;51487;52.266;10.542;2024-02-14T00:03:29;3.83;;;2.20;;
64959;SDS011;51487;52.266;10.542;2024-02-14T00:05:54;2.65;;;1.90;;
64959;SDS011;51487;52.266;10.542;2024-02-14T00:08:22;3.08;;;1.88;;
64959;SDS011;51487;52.266;10.542;2024-02-14T00:10:48;2.65;;;1.80;;
64959;SDS011;51487;52.266;10.542;2024-02-14T00:13:13;4.93;;;2.30;;
64959;SDS011;51487;52.266;10.542;2024-02-14T00:15:40;4.00;;;2.00;;
64959;SDS011;51487;52.266;10.542;2024-02-14T00:18:05;3.38;;;2.00;;
64959;SDS011;51487;52.266;10.542;2024-02-14T00:20:31;3.45;;;1.90;;
64959;SDS011;51487;52.266;10.542;2024-02-14T00:22:57;3.50;;;2.20;;
64959;SDS011;51487;52.266;10.542;2024-02-14T00:25:23;3.88;;;2.10;;
64959;SDS011;51487;52.266;10.542;2024-02-14T00:27:48;2.45;;;1.85;;
64959;SDS011;51487;52.266;10.542;2024-02-14T00:30:14;4.03;;;2.17;;
64959;SDS011;51487;52.266;10.542;2024-02-14T00:32:40;4.88;;;2.22;;
64959;SDS011;51487;52.266;10.542;2024-02-14T00:35:06;3.22;;;2.05;;
64959;SDS011;51487;52.266;10.542;2024-02-14T00:37:32;4.35;;;2.25;;
64959;SDS011;51487;52.266;10.542;2024-02-14T00:39:58;4.43;;;2.38;;
64959;SDS011;51487;52.266;10.542;2024-02-14T00:42:24;2.67;;;2.00;;
64959;SDS011;51487;52.266;10.542;2024-02-14T00:44:50;6.60;;;2.63;;
64959;SDS011;51487;52.266;10.542;2024-02-14T00:47:16;3.38;;;2.03;;
64959;SDS011;51487;52.266;10.542;2024-02-14T00:49:41;3.53;;;2.13;;
64959;SDS011;51487;52.266;10.542;2024-02-14T00:52:07;2.70;;;2.00;;
64959;SDS011;51487;52.266;10.542;2024-02-14T00:54:34;6.53;;;2.72;;
64959;SDS011;51487;52.266;10.542;2024-02-14T00:57:00;2.25;;;2.05;;
64959;SDS011;51487;52.266;10.542;2024-02-14T00:59:26;4.20;;;1.92;;
64959;SDS011;51487;52.266;10.542;2024-02-14T01:01:52;2.78;;;1.98;;
64959;SDS011;51487;52.266;10.542;2024-02-14T01:04:18;3.03;;;2.00;;
64959;SDS011;51487;52.266;10.542;2024-02-14T01:06:43;5.13;;;1.90;;
64959;SDS011;51487;52.266;10.542;2024-02-14T01:09:09;6.10;;;2.17;;
64959;SDS011;51487;52.266;10.542;2024-02-14T01:11:34;4.57;;;1.77;;
64959;SDS011;51487;52.266;10.542;2024-02-14T01:14:03;3.88;;;2.20;;
64959;SDS011;51487;52.266;10.542;2024-02-14T01:16:29;2.85;;;1.90;;
64959;SDS011;51487;52.266;10.542;2024-02-14T01:18:54;2.00;;;1.80;;
64959;SDS011;51487;52.266;10.542;2024-02-14T01:21:20;3.05;;;1.70;;
64959;SDS011;51487;52.266;10.542;2024-02-14T01:23:45;2.15;;;1.77;;
64959;SDS011;51487;52.266;10.542;2024-02-14T01:26:11;4.10;;;2.10;;
64959;SDS011;51487;52.266;10.542;2024-02-14T01:28:36;2.15;;;1.70;;
64959;SDS011;51487;52.266;10.542;2024-02-14T01:31:03;3.58;;;2.10;;
64959;SDS011;51487;52.266;10.542;2024-02-14T01:33:28;4.15;;;1.92;;
64959;SDS011;51487;52.266;10.542;2024-02-14T01:35:55;3.65;;;1.80;;
64959;SDS011;51487;52.266;10.542;2024-02-14T01:38:22;3.22;;;1.67;;
64959;SDS011;51487;52.266;10.542;2024-02-14T01:40:48;2.83;;;1.80;;
64959;SDS011;51487;52.266;10.542;2024-02-14T01:43:14;2.38;;;1.80;;
64959;SDS011;51487;52.266;10.542;2024-02-14T01:45:39;3.42;;;1.98;;
64959;SDS011;51487;52.266;10.542;2024-02-14T01:48:05;2.03;;;1.63;;
64959;SDS011;51487;52.266;10.542;2024-02-14T01:50:33;3.80;;;1.90;;
64959;SDS011;51487;52.266;10.542;2024-02-14T01:53:00;2.97;;;1.88;;
64959;SDS011;51487;52.266;10.542;2024-02-14T01:55:28;3.92;;;1.60;;
64959;SDS011;51487;52.266;10.542;2024-02-14T01:57:54;3.55;;;1.90;;
64959;SDS011;51487;52.266;10.542;2024-02-14T02:00:20;3.65;;;2.03;;
64959;SDS011;51487;52.266;10.542;2024-02-14T02:02:46;1.90;;;1.80;;
64959;SDS011;51487;52.266;10.542;2024-02-14T02:05:14;7.22;;;2.05;;
64959;SDS011;51487;52.266;10.542;2024-02-14T02:07:41;3.05;;;1.80;;
64959;SDS011;51487;52.266;10.542;2024-02-14T02:10:11;4.47;;;2.00;;
64959;SDS011;51487;52.266;10.542;2024-02-14T02:12:37;1.80;;;1.70;;
64959;SDS011;51487;52.266;10.542;2024-02-14T02:15:06;1.90;;;1.80;;
64959;SDS011;51487;52.266;10.542;2024-02-14T02:17:37;3.40;;;1.90;;
64959;SDS011;51487;52.266;10.542;2024-02-14T02:20:04;4.03;;;1.95;;
64959;SDS011;51487;52.266;10.542;2024-02-14T02:22:32;2.75;;;2.03;;
64959;SDS011;51487;52.266;10.542;2024-02-14T02:25:00;6.80;;;1.90;;
64959;SDS011;51487;52.266;10.542;2024-02-14T02:27:28;5.22;;;2.10;;
64959;SDS011;51487;52.266;10.542;2024-02-14T02:29:53;4.80;;;2.08;;
64959;SDS011;51487;52.266;10.542;2024-02-14T02:32:19;2.88;;;2.00;;
64959;SDS011;51487;52.266;10.542;2024-02-14T02:34:44;2.30;;;1.90;;
64959;SDS011;51487;52.266;10.542;2024-02-14T02:37:10;3.70;;;2.20;;
64959;SDS011;51487;52.266;10.542;2024-02-14T02:39:37;4.13;;;2.00;;
64959;SDS011;51487;52.266;10.542;2024-02-14T02:42:03;3.53;;;1.83;;
64959;SDS011;51487;52.266;10.542;2024-02-14T02:44:29;3.60;;;2.17;;
64959;SDS011;51487;52.266;10.542;2024-02-14T02:46:54;6.28;;;2.00;;
64959;SDS011;51487;52.266;10.542;2024-02-14T02:49:20;3.65;;;2.03;;
64959;SDS011;51487;52.266;10.542;2024-02-14T02:51:46;4.72;;;2.10;;
64959;SDS011;51487;52.266;10.542;2024-02-14T02:54:12;4.32;;;2.25;;
64959;SDS011;51487;52.266;10.542;2024-02-14T02:56:38;2.65;;;2.03;;
64959;SDS011;51487;52.266;10.542;2024-02-14T02:59:05;2.42;;;2.00;;
64959;SDS011;51487;52.266;10.542;2024-02-14T03:01:36;4.88;;;2.10;;
64959;SDS011;51487;52.266;10.542;2024-02-14T03:04:02;5.00;;;1.92;;
64959;SDS011;51487;52.266;10.542;2024-02-14T03:06:27;3.90;;;2.25;;
64959;SDS011;51487;52.266;10.542;2024-02-14T03:08:53;4.68;;;2.20;;
64959;SDS011;51487;52.266;10.542;2024-02-14T03:11:20;6.78;;;2.40;;
64959;SDS011;51487;52.266;10.542;2024-02-14T03:13:46;5.15;;;2.30;;
64959;SDS011;51487;52.266;10.542;2024-02-14T03:16:13;5.50;;;2.40;;
64959;SDS011;51487;52.266;10.542;2024-02-14T03:18:40;5.95;;;2.67;;
64959;SDS011;51487;52.266;10.542;2024-02-14T03:21:06;3.80;;;2.20;;
64959;SDS011;51487;52.266;10.542;2024-02-14T03:23:31;4.35;;;2.30;;
64959;SDS011;51487;52.266;10.542;2024-02-14T03:25:57;5.35;;;2.30;;
64959;SDS011;51487;52.266;10.542;2024-02-14T03:28:23;5.75;;;2.50;;
64959;SDS011;51487;52.266;10.542;2024-02-14T03:30:48;5.13;;;2.30;;
64959;SDS011;51487;52.266;10.542;2024-02-14T03:33:14;4.50;;;2.20;;
64959;SDS011;51487;52.266;10.542;2024-02-14T03:35:41;5.00;;;2.72;;
64959;SDS011;51487;52.266;10.542;2024-02-14T03:38:07;4.43;;;2.28;;
64959;SDS011;51487;52.266;10.542;2024-02-14T03:40:35;2.78;;;2.03;;
64959;SDS011;51487;52.266;10.542;2024-02-14T03:43:03;5.55;;;2.20;;
64959;SDS011;51487;52.266;10.542;2024-02-14T03:45:29;5.10;;;2.45;;
64959;SDS011;51487;52.266;10.542;2024-02-14T03:47:55;6.05;;;2.25;;
64959;SDS011;51487;52.266;10.542;2024-02-14T03:50:21;3.08;;;2.00;;
64959;SDS011;51487;52.266;10.542;2024-02-14T03:52:48;4.75;;;2.53;;
64959;SDS011;51487;52.266;10.542;2024-02-14T03:55:14;4.72;;;2.40;;
64959;SDS011;51487;52.266;10.542;2024-02-14T03:57:42;5.70;;;2.40;;
64959;SDS011;51487;52.266;10.542;2024-02-14T04:00:10;5.20;;;2.40;;
64959;SDS011;51487;52.266;10.542;2024-02-14T04:02:36;3.25;;;2.20;;
64959;SDS011;51487;52.266;10.542;2024-02-14T04:05:02;4.50;;;2.42;;
64959;SDS011;51487;52.266;10.542;2024-02-14T04:07:28;6.15;;;2.53;;
64959;SDS011;51487;52.266;10.542;2024-02-14T04:09:54;3.60;;;2.40;;
64959;SDS011;51487;52.266;10.542;2024-02-14T04:12:20;5.38;;;2.50;;
64959;SDS011;51487;52.266;10.542;2024-02-14T04:14:46;5.53;;;2.42;;
64959;SDS011;51487;52.266;10.542;2024-02-14T04:17:12;6.40;;;2.60;;
64959;SDS011;51487;52.266;10.542;2024-02-14T04:19:38;6.15;;;2.30;;
64959;SDS011;51487;52.266;10.542;2024-02-14T04:22:04;4.80;;;2.75;;
64959;SDS011;51487;52.266;10.542;2024-02-14T04:24:32;5.50;;;3.13;;
64959;SDS011;51487;52.266;10.542;2024-02-14T04:26:59;4.38;;;2.55;;
64959;SDS011;51487;52.266;10.542;2024-02-14T04:29:27;4.43;;;2.83;;
64959;SDS011;51487;52.266;10.542;2024-02-14T04:31:55;6.18;;;2.70;;
64959;SDS011;51487;52.266;10.542;2024-02-14T04:34:21;4.55;;;2.65;;
64959;SDS011;51487;52.266;10.542;2024-02-14T04:36:47;5.88;;;2.40;;
64959;SDS011;51487;52.266;10.542;2024-02-14T04:39:12;6.70;;;2.45;;
64959;SDS011;51487;52.266;10.542;2024-02-14T04:41:38;3.70;;;2.22;;
64959;SDS011;51487;52.266;10.542;2024-02-14T04:44:07;4.30;;;2.20;;
64959;SDS011;51487;52.266;10.542;2024-02-14T04:46:32;5.15;;;2.58;;
64959;SDS011;51487;52.266;10.542;2024-02-14T04:49:00;5.53;;;2.70;;
64959;SDS011;51487;52.266;10.542;2024-02-14T04:51:28;5.85;;;2.38;;
64959;SDS011;51487;52.266;10.542;2024-02-14T04:53:55;5.20;;;2.58;;
64959;SDS011;51487;52.266;10.542;2024-02-14T04:56:23;5.93;;;2.45;;
64959;SDS011;51487;52.266;10.542;2024-02-14T04:58:51;4.30;;;2.20;;
64959;SDS011;51487;52.266;10.542;2024-02-14T05:01:21;3.40;;;2.10;;
64959;SDS011;51487;52.266;10.542;2024-02-14T05:03:46;4.57;;;2.20;;
64959;SDS011;51487;52.266;10.542;2024-02-14T05:06:13;4.50;;;2.13;;
64959;SDS011;51487;52.266;10.542;2024-02-14T05:08:39;3.67;;;2.00;;
64959;SDS011;51487;52.266;10.542;2024-02-14T05:11:04;4.28;;;2.28;;
64959;SDS011;51487;52.266;10.542;2024-02-14T05:13:30;5.57;;;2.35;;
64959;SDS011;51487;52.266;10.542;2024-02-14T05:15:56;3.38;;;2.20;;
64959;SDS011;51487;52.266;10.542;2024-02-14T05:18:21;3.85;;;2.05;;
64959;SDS011;51487;52.266;10.542;2024-02-14T05:20:47;4.50;;;2.22;;
64959;SDS011;51487;52.266;10.542;2024-02-14T05:23:14;5.93;;;2.70;;
64959;SDS011;51487;52.266;10.542;2024-02-14T05:25:42;6.38;;;3.15;;
64959;SDS011;51487;52.266;10.542;2024-02-14T05:28:08;11.65;;;3.80;;
64959;SDS011;51487;52.266;10.542;2024-02-14T05:30:38;4.07;;;2.47;;
64959;SDS011;51487;52.266;10.542;2024-02-14T05:33:05;4.32;;;2.20;;
64959;SDS011;51487;52.266;10.542;2024-02-14T05:35:30;4.22;;;2.30;;
64959;SDS011;51487;52.266;10.542;2024-02-14T05:37:56;5.65;;;2.30;;
64959;SDS011;51487;52.266;10.542;2024-02-14T05:40:21;4.75;;;2.72;;
64959;SDS011;51487;52.266;10.542;2024-02-14T05:42:47;6.25;;;2.28;;
64959;SDS011;51487;52.266;10.542;2024-02-14T05:45:12;3.58;;;2.20;;
64959;SDS011;51487;52.266;10.542;2024-02-14T05:47:38;4.30;;;2.17;;
64959;SDS011;51487;52.266;10.542;2024-02-14T05:50:04;4.93;;;2.28;;
64959;SDS011;51487;52.266;10.542;2024-02-14T05:52:32;3.03;;;2.10;;
64959;SDS011;51487;52.266;10.542;2024-02-14T05:54:58;4.38;;;2.35;;
64959;SDS011;51487;52.266;10.542;2024-02-14T05:57:23;5.85;;;2.40;;
64959;SDS011;51487;52.266;10.542;2024-02-14T05:59:49;9.73;;;2.70;;
64959;SDS011;51487;52.266;10.542;2024-02-14T06:02:14;3.42;;;2.33;;
64959;SDS011;51487;52.266;10.542;2024-02-14T06:04:40;6.78;;;2.50;;
64959;SDS011;51487;52.266;10.542;2024-02-14T06:07:06;5.15;;;2.53;;
64959;SDS011;51487;52.266;10.542;2024-02-14T06:09:35;6.32;;;2.97;;
64959;SDS011;51487;52.266;10.542;2024-02-14T06:12:00;6.25;;;3.17;;
64959;SDS011;51487;52.266;10.542;2024-02-14T06:14:26;5.25;;;3.08;;
64959;SDS011;51487;52.266;10.542;2024-02-14T06:16:51;9.30;;;3.15;;
64959;SDS011;51487;52.266;10.542;2024-02-14T06:19:17;8.43;;;3.15;;
64959;SDS011;51487;52.266;10.542;2024-02-14T06:21:42;6.25;;;2.97;;
64959;SDS011;51487;52.266;10.542;2024-02-14T06:24:08;6.90;;;3.13;;
64959;SDS011;51487;52.266;10.542;2024-02-14T06:26:35;7.25;;;3.25;;
64959;SDS011;51487;52.266;10.542;2024-02-14T06:29:01;7.30;;;2.80;;
64959;SDS011;51487;52.266;10.542;2024-02-14T06:31:27;8.73;;;3.67;;
64959;SDS011;51487;52.266;10.542;2024-02-14T06:33:53;6.75;;;3.30;;
64959;SDS011;51487;52.266;10.542;2024-02-14T06:36:18;6.88;;;3.50;;
64959;SDS011;51487;52.266;10.542;2024-02-14T06:38:44;5.90;;;3.60;;
64959;SDS011;51487;52.266;10.542;2024-02-14T06:41:11;10.02;;;3.50;;
64959;SDS011;51487;52.266;10.542;2024-02-14T06:43:37;5.28;;;3.15;;
64959;SDS011;51487;52.266;10.542;2024-02-14T06:46:04;5.63;;;3.17;;
64959;SDS011;51487;52.266;10.542;2024-02-14T06:48:31;6.05;;;2.90;;
64959;SDS011;51487;52.266;10.542;2024-02-14T06:50:56;8.45;;;3.35;;
64959;SDS011;51487;52.266;10.542;2024-02-14T06:53:22;5.70;;;3.33;;
64959;SDS011;51487;52.266;10.542;2024-02-14T06:55:47;5.28;;;2.85;;
64959;SDS011;51487;52.266;10.542;2024-02-14T06:58:13;9.70;;;2.80;;
64959;SDS011;51487;52.266;10.542;2024-02-14T07:00:39;5.05;;;2.78;;
64959;SDS011;51487;52.266;10.542;2024-02-14T07:03:04;4.68;;;2.60;;
64959;SDS011;51487;52.266;10.542;2024-02-14T07:05:30;3.50;;;2.25;;
64959;SDS011;51487;52.266;10.542;2024-02-14T07:07:56;7.20;;;2.60;;
64959;SDS011;51487;52.266;10.542;2024-02-14T07:10:22;6.05;;;2.58;;
64959;SDS011;51487;52.266;10.542;2024-02-14T07:12:47;5.82;;;2.70;;
64959;SDS011;51487;52.266;10.542;2024-02-14T07:15:13;4.43;;;2.50;;
64959;SDS011;51487;52.266;10.542;2024-02-14T07:17:39;5.93;;;2.78;;
64959;SDS011;51487;52.266;10.542;2024-02-14T07:20:04;4.13;;;2.38;;
64959;SDS011;51487;52.266;10.542;2024-02-14T07:22:33;5.72;;;2.58;;
64959;SDS011;51487;52.266;10.542;2024-02-14T07:25:00;3.50;;;2.30;;
64959;SDS011;51487;52.266;10.542;2024-02-14T07:27:25;6.47;;;2.45;;
64959;SDS011;51487;52.266;10.542;2024-02-14T07:29:52;4.57;;;2.40;;
64959;SDS011;51487;52.266;10.542;2024-02-14T07:32:17;2.90;;;2.08;;
64959;SDS011;51487;52.266;10.542;2024-02-14T07:34:43;9.15;;;2.53;;
64959;SDS011;51487;52.266;10.542;2024-02-14T07:37:09;3.10;;;2.33;;
64959;SDS011;51487;52.266;10.542;2024-02-14T07:39:34;4.43;;;2.20;;
64959;SDS011;51487;52.266;10.542;2024-02-14T07:42:00;4.30;;;2.13;;
64959;SDS011;51487;52.266;10.542;2024-02-14T07:44:27;4.03;;;2.58;;
64959;SDS011;51487;52.266;10.542;2024-02-14T07:46:53;6.05;;;2.42;;
64959;SDS011;51487;52.266;10.542;2024-02-14T07:49:18;3.25;;;2.25;;
64959;SDS011;51487;52.266;10.542;2024-02-14T07:51:46;3.72;;;2.28;;
64959;SDS011;51487;52.266;10.542;2024-02-14T07:54:12;5.38;;;2.20;;
64959;SDS011;51487;52.266;10.542;2024-02-14T07:56:38;3.17;;;2.28;;
64959;SDS011;51487;52.266;10.542;2024-02-14T07:59:04;6.25;;;2.33;;
64959;SDS011;51487;52.266;10.542;2024-02-14T08:01:30;4.78;;;2.55;;
64959;SDS011;51487;52.266;10.542;2024-02-14T08:03:57;4.88;;;2.55;;
64959;SDS011;51487;52.266;10.542;2024-02-14T08:06:23;4.85;;;2.15;;
64959;SDS011;51487;52.266;10.542;2024-02-14T08:08:49;8.40;;;3.10;;
64959;SDS011;51487;52.266;10.542;2024-02-14T08:11:18;5.50;;;2.60;;
64959;SDS011;51487;52.266;10.542;2024-02-14T08:13:44;5.15;;;2.25;;
64959;SDS011;51487;52.266;10.542;2024-02-14T08:16:10;3.90;;;2.45;;
64959;SDS011;51487;52.266;10.542;2024-02-14T08:18:37;4.15;;;2.40;;
64959;SDS011;51487;52.266;10.542;2024-02-14T08:21:04;4.10;;;2.10;;
64959;SDS011;51487;52.266;10.542;2024-02-14T08:23:31;4.35;;;2.42;;
64959;SDS011;51487;52.266;10.542;2024-02-14T08:25:57;2.65;;;2.15;;
64959;SDS011;51487;52.266;10.542;2024-02-14T08:28:22;4.20;;;2.60;;
64959;SDS011;51487;52.266;10.542;2024-02-14T08:30:48;5.10;;;2.50;;
64959;SDS011;51487;52.266;10.542;2024-02-14T08:33:13;3.83;;;2.50;;
64959;SDS011;51487;52.266;10.542;2024-02-14T08:35:39;3.72;;;2.20;;
64959;SDS011;51487;52.266;10.542;2024-02-14T08:38:05;2.97;;;2.20;;
64959;SDS011;51487;52.266;10.542;2024-02-14T08:40:31;4.82;;;2.38;;
64959;SDS011;51487;52.266;10.542;2024-02-14T08:42:57;2.95;;;2.00;;
64959;SDS011;51487;52.266;10.542;2024-02-14T08:45:24;5.68;;;2.60;;
64959;SDS011;51487;52.266;10.542;2024-02-14T08:47:50;3.65;;;2.17;;
64959;SDS011;51487;52.266;10.542;2024-02-14T08:50:16;3.55;;;2.20;;
64959;SDS011;51487;52.266;10.542;2024-02-14T08:52:42;4.25;;;2.00;;
64959;SDS011;51487;52.266;10.542;2024-02-14T08:55:07;2.30;;;2.10;;
64959;SDS011;51487;52.266;10.542;2024-02-14T08:57:39;4.18;;;2.00;;
64959;SDS011;51487;52.266;10.542;2024-02-14T09:00:06;3.72;;;2.13;;
64959;SDS011;51487;52.266;10.542;2024-02-14T09:02:33;4.03;;;2.10;;
64959;SDS011;51487;52.266;10.542;2024-02-14T09:05:00;3.20;;;1.95;;
64959;SDS011;51487;52.266;10.542;2024-02-14T09:07:26;2.50;;;1.90;;
64959;SDS011;51487;52.266;10.542;2024-02-14T09:09:52;3.55;;;2.30;;
64959;SDS011;51487;52.266;10.542;2024-02-14T09:12:17;4.15;;;2.10;;
64959;SDS011;51487;52.266;10.542;2024-02-14T09:14:43;3.75;;;2.10;;
64959;SDS011;51487;52.266;10.542;2024-02-14T09:17:08;2.58;;;2.03;;
64959;SDS011;51487;52.266;10.542;2024-02-14T09:19:35;4.05;;;2.17;;
64959;SDS011;51487;52.266;10.542;2024-02-14T09:22:01;4.18;;;2.30;;
64959;SDS011;51487;52.266;10.542;2024-02-14T09:24:31;3.42;;;2.40;;
64959;SDS011;51487;52.266;10.542;2024-02-14T09:26:57;5.05;;;2.10;;
64959;SDS011;51487;52.266;10.542;2024-02-14T09:29:23;5.18;;;2.72;;
64959;SDS011;51487;52.266;10.542;2024-02-14T09:31:50;3.00;;;2.00;;
64959;SDS011;51487;52.266;10.542;2024-02-14T09:34:16;3.47;;;2.25;;
64959;SDS011;51487;52.266;10.542;2024-02-14T09:36:44;3.92;;;2.13;;
64959;SDS011;51487;52.266;10.542;2024-02-14T09:39:10;5.53;;;2.40;;
64959;SDS011;51487;52.266;10.542;2024-02-14T09:44:08;3.08;;;2.13;;
64959;SDS011;51487;52.266;10.542;2024-02-14T09:46:35;2.20;;;1.73;;
64959;SDS011;51487;52.266;10.542;2024-02-14T09:49:04;4.22;;;2.00;;
64959;SDS011;51487;52.266;10.542;2024-02-14T09:51:31;3.65;;;2.33;;
64959;SDS011;51487;52.266;10.542;2024-02-14T09:53:58;3.72;;;1.98;;
64959;SDS011;51487;52.266;10.542;2024-02-14T09:56:26;3.88;;;2.33;;
64959;SDS011;51487;52.266;10.542;2024-02-14T09:58:56;4.32;;;3.10;;
64959;SDS011;51487;52.266;10.542;2024-02-14T10:01:22;4.40;;;2.22;;
64959;SDS011;51487;52.266;10.542;2024-02-14T10:03:55;7.28;;;2.35;;
64959;SDS011;51487;52.266;10.542;2024-02-14T10:06:21;4.72;;;2.28;;
64959;SDS011;51487;52.266;10.542;2024-02-14T10:08:48;3.78;;;2.20;;
64959;SDS011;51487;52.266;10.542;2024-02-14T10:11:15;4.07;;;2.20;;
64959;SDS011;51487;52.266;10.542;2024-02-14T10:13:46;2.97;;;2.10;;
64959;SDS011;51487;52.266;10.542;2024-02-14T10:16:13;4.28;;;2.05;;
64959;SDS011;51487;52.266;10.542;2024-02-14T10:18:39;5.22;;;2.25;;
64959;SDS011;51487;52.266;10.542;2024-02-14T10:21:05;3.28;;;2.00;;
64959;SDS011;51487;52.266;10.542;2024-02-14T10:23:31;2.38;;;1.95;;
64959;SDS011;51487;52.266;10.542;2024-02-14T10:25:57;3.05;;;1.70;;
64959;SDS011;51487;52.266;10.542;2024-02-14T10:28:24;2.53;;;1.90;;
64959;SDS011;51487;52.266;10.542;2024-02-14T10:30:49;5.35;;;2.00;;
64959;SDS011;51487;52.266;10.542;2024-02-14T10:33:16;2.60;;;2.10;;
64959;SDS011;51487;52.266;10.542;2024-02-14T10:35:43;2.72;;;2.05;;
64959;SDS011;51487;52.266;10.542;2024-02-14T10:38:09;2.53;;;1.90;;
64959;SDS011;51487;52.266;10.542;2024-02-14T10:40:37;3.17;;;1.98;;
64959;SDS011;51487;52.266;10.542;2024-02-14T10:43:04;2.38;;;1.90;;
64959;SDS011;51487;52.266;10.542;2024-02-14T10:45:31;2.97;;;1.90;;
64959;SDS011;51487;52.266;10.542;2024-02-14T10:47:57;3.53;;;1.80;;
64959;SDS011;51487;52.266;10.542;2024-02-14T10:50:26;5.90;;;2.15;;
64959;SDS011;51487;52.266;10.542;2024-02-14T10:52:57;3.50;;;2.00;;
64959;SDS011;51487;52.266;10.542;2024-02-14T10:55:25;4.80;;;2.10;;
64959;SDS011;51487;52.266;10.542;2024-02-14T10:57:55;7.03;;;2.15;;
64959;SDS011;51487;52.266;10.542;2024-02-14T11:00:23;3.10;;;1.95;;
64959;SDS011;51487;52.266;10.542;2024-02-14T11:02:49;3.72;;;1.90;;
64959;SDS011;51487;52.266;10.542;2024-02-14T11:05:19;2.78;;;1.85;;
64959;SDS011;51487;52.266;10.542;2024-02-14T11:07:49;8.18;;;1.88;;
64959;SDS011;51487;52.266;10.542;2024-02-14T11:10:18;4.25;;;2.20;;
64959;SDS011;51487;52.266;10.542;2024-02-14T11:12:46;4.47;;;1.90;;
64959;SDS011;51487;52.266;10.542;2024-02-14T11:15:22;3.22;;;1.92;;
64959;SDS011;51487;52.266;10.542;2024-02-14T11:18:03;2.03;;;1.77;;
64959;SDS011;51487;52.266;10.542;2024-02-14T11:20:39;4.05;;;1.88;;
64959;SDS011;51487;52.266;10.542;2024-02-14T11:23:06;3.80;;;2.20;;
64959;SDS011;51487;52.266;10.542;2024-02-14T11:25:36;10.20;;;2.10;;
64959;SDS011;51487;52.266;10.542;2024-02-14T11:28:12;3.47;;;1.63;;
64959;SDS011;51487;52.266;10.542;2024-02-14T11:30:46;3.35;;;1.77;;
64959;SDS011;51487;52.266;10.542;2024-02-14T11:35:49;4.25;;;1.90;;
64959;SDS011;51487;52.266;10.542;2024-02-14T11:38:18;2.72;;;1.85;;
64959;SDS011;51487;52.266;10.542;2024-02-14T11:40:44;3.75;;;1.83;;
64959;SDS011;51487;52.266;10.542;2024-02-14T11:43:14;3.70;;;1.70;;
64959;SDS011;51487;52.266;10.542;2024-02-14T11:45:43;4.13;;;1.85;;
64959;SDS011;51487;52.266;10.542;2024-02-14T11:48:11;3.28;;;1.65;;
64959;SDS011;51487;52.266;10.542;2024-02-14T11:50:45;3.70;;;1.95;;
64959;SDS011;51487;52.266;10.542;2024-02-14T11:53:12;3.60;;;1.70;;
64959;SDS011;51487;52.266;10.542;2024-02-14T11:55:41;2.90;;;1.98;;
64959;SDS011;51487;52.266;10.542;2024-02-14T11:58:07;1.60;;;1.50;;
64959;SDS011;51487;52.266;10.542;2024-02-14T12:00:40;4.28;;;2.10;;
64959;SDS011;51487;52.266;10.542;2024-02-14T12:03:07;4.15;;;2.10;;
64959;SDS011;51487;52.266;10.542;2024-02-14T12:05:36;3.22;;;1.75;;
64959;SDS011;51487;52.266;10.542;2024-02-14T12:08:04;2.92;;;2.00;;
64959;SDS011;51487;52.266;10.542;2024-02-14T12:10:32;1.70;;;1.60;;
64959;SDS011;51487;52.266;10.542;2024-02-14T12:12:58;3.40;;;1.70;;
64959;SDS011;51487;52.266;10.542;2024-02-14T12:15:36;4.05;;;1.98;;
64959;SDS011;51487;52.266;10.542;2024-02-14T12:18:06;2.70;;;1.65;;
64959;SDS011;51487;52.266;10.542;2024-02-14T12:20:34;2.63;;;1.77;;
64959;SDS011;51487;52.266;10.542;2024-02-14T12:23:01;3.83;;;1.63;;
64959;SDS011;51487;52.266;10.542;2024-02-14T12:25:27;4.15;;;2.00;;
64959;SDS011;51487;52.266;10.542;2024-02-14T12:27:52;3.72;;;1.75;;
64959;SDS011;51487;52.266;10.542;2024-02-14T12:30:18;2.05;;;1.50;;
64959;SDS011;51487;52.266;10.542;2024-02-14T12:32:57;4.15;;;1.67;;
64959;SDS011;51487;52.266;10.542;2024-02-14T12:35:24;3.28;;;1.52;;
64959;SDS011;51487;52.266;10.542;2024-02-14T12:37:50;3.28;;;1.60;;
64959;SDS011;51487;52.266;10.542;2024-02-14T12:40:15;1.70;;;1.50;;
64959;SDS011;51487;52.266;10.542;2024-02-14T12:42:41;2.45;;;1.60;;
64959;SDS011;51487;52.266;10.542;2024-02-14T12:45:07;2.38;;;1.60;;
64959;SDS011;51487;52.266;10.542;2024-02-14T12:47:34;2.47;;;1.60;;
64959;SDS011;51487;52.266;10.542;2024-02-14T12:50:00;2.28;;;1.58;;
64959;SDS011;51487;52.266;10.542;2024-02-14T12:52:26;2.75;;;1.60;;
64959;SDS011;51487;52.266;10.542;2024-02-14T12:54:51;1.95;;;1.42;;
64959;SDS011;51487;52.266;10.542;2024-02-14T12:57:17;3.13;;;1.70;;
64959;SDS011;51487;52.266;10.542;2024-02-14T12:59:44;2.75;;;1.50;;
64959;SDS011;51487;52.266;10.542;2024-02-14T13:02:10;3.47;;;1.73;;
64959;SDS011;51487;52.266;10.542;2024-02-14T13:04:36;2.88;;;1.40;;
64959;SDS011;51487;52.266;10.542;2024-02-14T13:07:01;2.33;;;1.80;;
64959;SDS011;51487;52.266;10.542;2024-02-14T13:09:28;2.17;;;1.80;;
64959;SDS011;51487;52.266;10.542;2024-02-14T13:11:53;1.98;;;1.52;;
64959;SDS011;51487;52.266;10.542;2024-02-14T13:14:19;3.85;;;1.83;;
64959;SDS011;51487;52.266;10.542;2024-02-14T13:16:44;1.88;;;1.13;;
64959;SDS011;51487;52.266;10.542;2024-02-14T13:19:10;4.93;;;1.50;;
64959;SDS011;51487;52.266;10.542;2024-02-14T13:21:35;2.40;;;1.52;;
64959;SDS011;51487;52.266;10.542;2024-02-14T13:24:01;4.45;;;1.70;;
64959;SDS011;51487;52.266;10.542;2024-02-14T13:26:28;1.60;;;1.50;;
64959;SDS011;51487;52.266;10.542;2024-02-14T13:28:54;2.20;;;1.50;;
64959;SDS011;51487;52.266;10.542;2024-02-14T13:31:20;2.05;;;1.55;;
64959;SDS011;51487;52.266;10.542;2024-02-14T13:33:46;2.35;;;1.50;;
64959;SDS011;51487;52.266;10.542;2024-02-14T13:36:12;1.83;;;1.50;;
64959;SDS011;51487;52.266;10.542;2024-02-14T13:38:41;3.13;;;1.63;;
64959;SDS011;51487;52.266;10.542;2024-02-14T13:41:09;2.80;;;1.80;;
64959;SDS011;51487;52.266;10.542;2024-02-14T13:43:34;2.35;;;1.50;;
64959;SDS011;51487;52.266;10.542;2024-02-14T13:46:00;3.97;;;1.50;;
64959;SDS011;51487;52.266;10.542;2024-02-14T13:48:25;3.60;;;1.60;;
64959;SDS011;51487;52.266;10.542;2024-02-14T13:50:51;2.80;;;1.38;;
64959;SDS011;51487;52.266;10.542;2024-02-14T13:53:16;3.50;;;1.80;;
64959;SDS011;51487;52.266;10.542;2024-02-14T13:55:42;3.63;;;1.52;;
64959;SDS011;51487;52.266;10.542;2024-02-14T13:58:08;2.70;;;1.45;;
64959;SDS011;51487;52.266;10.542;2024-02-14T14:00:39;2.08;;;1.52;;
64959;SDS011;51487;52.266;10.542;2024-02-14T14:03:04;2.25;;;1.50;;
64959;SDS011;51487;52.266;10.542;2024-02-14T14:05:30;3.83;;;1.58;;
64959;SDS011;51487;52.266;10.542;2024-02-14T14:07:55;4.63;;;2.13;;
64959;SDS011;51487;52.266;10.542;2024-02-14T14:10:22;2.55;;;1.70;;
64959;SDS011;51487;52.266;10.542;2024-02-14T14:12:50;3.72;;;1.75;;
64959;SDS011;51487;52.266;10.542;2024-02-14T14:15:15;1.88;;;1.50;;
64959;SDS011;51487;52.266;10.542;2024-02-14T14:17:41;5.32;;;2.03;;
64959;SDS011;51487;52.266;10.542;2024-02-14T14:20:07;3.60;;;2.10;;
64959;SDS011;51487;52.266;10.542;2024-02-14T14:22:33;3.15;;;1.60;;
64959;SDS011;51487;52.266;10.542;2024-02-14T14:24:58;3.97;;;1.80;;
64959;SDS011;51487;52.266;10.542;2024-02-14T14:27:24;3.63;;;1.80;;
64959;SDS011;51487;52.266;10.542;2024-02-14T14:29:50;2.28;;;1.70;;
64959;SDS011;51487;52.266;10.542;2024-02-14T14:32:15;3.35;;;1.80;;
64959;SDS011;51487;52.266;10.542;2024-02-14T14:34:41;1.88;;;1.52;;